Time;durP1;ratioP1;P1;durP2;ratioP2;P2;SDS_P1;SDS_P2;PMS_P1;PMS_P2;Temp;Humidity;BMP_temperature;BMP_pressure;BME280_temperature;BME280_humidity;BME280_pressure;Samples;Min_cycle;Max_cycle;Signal;HPM_P1;HPM_P2
2023/09/30 00:02:04;;;;;;;4.03;2.50;;;;;;;17.25;76.00;96456.53;6158422;23;20170;-82
2023/09/30 00:04:30;;;;;;;5.43;2.50;;;;;;;17.34;75.43;96465.19;6156960;23;20550;-82
2023/09/30 00:06:55;;;;;;;4.63;2.95;;;;;;;17.19;76.35;96465.06;6133127;23;20237;-81
2023/09/30 00:09:21;;;;;;;4.47;2.90;;;;;;;16.92;77.04;96463.59;6157992;23;20167;-82
2023/09/30 00:11:46;;;;;;;7.78;2.90;;;;;;;16.97;76.59;96466.56;6159154;23;20187;-82
2023/09/30 00:14:12;;;;;;;4.63;2.83;;;;;;;16.83;77.41;96468.03;6133843;23;20356;-82
2023/09/30 00:16:37;;;;;;;4.38;3.20;;;;;;;16.90;77.13;96457.72;6134685;23;20159;-81
2023/09/30 00:19:03;;;;;;;6.25;3.20;;;;;;;16.89;77.90;96461.31;6134881;23;20152;-82
2023/09/30 00:21:28;;;;;;;5.25;3.28;;;;;;;16.89;77.96;96463.94;6134736;23;20178;-82
2023/09/30 00:23:54;;;;;;;5.65;3.17;;;;;;;16.76;77.91;96466.22;6133299;23;20159;-81
2023/09/30 00:26:20;;;;;;;4.95;3.40;;;;;;;16.72;77.20;96467.53;6135232;23;20197;-81
2023/09/30 00:28:46;;;;;;;4.97;3.20;;;;;;;16.67;76.44;96468.81;6135270;23;20554;-81
2023/09/30 00:31:11;;;;;;;7.38;3.15;;;;;;;16.75;76.02;96464.59;6160519;23;20182;-81
2023/09/30 00:33:37;;;;;;;5.57;3.40;;;;;;;16.77;76.26;96463.44;6134054;23;20699;-82
2023/09/30 00:36:10;;;;;;;8.10;3.60;;;;;;;16.83;76.53;96464.59;6161536;23;20172;-80
2023/09/30 00:38:36;;;;;;;6.20;3.30;;;;;;;16.44;76.05;96465.19;6159821;23;20452;-82
2023/09/30 00:41:01;;;;;;;5.88;3.30;;;;;;;16.55;75.92;96472.75;6158554;23;20159;-82
2023/09/30 00:43:26;;;;;;;5.47;3.42;;;;;;;16.72;75.54;96470.16;6135242;23;20167;-82
2023/09/30 00:46:13;;;;;;;4.82;3.25;;;;;;;16.57;75.95;96476.00;6160990;23;20183;-82
2023/09/30 00:48:39;;;;;;;5.97;3.78;;;;;;;16.70;74.98;96486.06;6161443;23;20182;-83
2023/09/30 00:51:04;;;;;;;4.85;3.08;;;;;;;16.52;75.98;96478.31;6159919;23;20551;-82
2023/09/30 00:53:30;;;;;;;4.68;2.95;;;;;;;16.64;76.01;96471.75;6159923;23;20536;-82
2023/09/30 00:55:56;;;;;;;5.03;3.00;;;;;;;16.39;77.10;96467.47;6136300;23;20179;-83
2023/09/30 00:58:25;;;;;;;3.88;2.90;;;;;;;16.56;76.53;96477.00;6160897;23;20194;-83
2023/09/30 01:00:51;;;;;;;6.00;3.35;;;;;;;16.57;75.92;96469.94;6159380;23;20163;-82
2023/09/30 01:03:16;;;;;;;5.82;3.05;;;;;;;16.47;76.71;96477.16;6160405;23;20379;-81
2023/09/30 01:05:42;;;;;;;5.85;3.10;;;;;;;16.53;76.10;96472.09;6134891;23;20186;-82
2023/09/30 01:08:09;;;;;;;4.60;2.90;;;;;;;16.57;75.53;96462.09;6135044;23;20163;-81
2023/09/30 01:10:35;;;;;;;4.15;2.88;;;;;;;16.56;75.51;96458.63;6134015;23;20182;-82
2023/09/30 01:13:00;;;;;;;5.95;3.60;;;;;;;16.52;76.14;96457.34;6158698;23;20183;-82
2023/09/30 01:15:28;;;;;;;6.07;3.05;;;;;;;16.63;75.64;96457.00;6135053;23;20207;-82
2023/09/30 01:17:54;;;;;;;6.63;3.30;;;;;;;16.63;75.78;96462.25;6134725;23;20175;-81
2023/09/30 01:20:22;;;;;;;5.47;3.25;;;;;;;16.62;76.08;96468.50;6134478;23;20681;-83
2023/09/30 01:22:47;;;;;;;4.07;2.88;;;;;;;16.52;76.83;96467.81;6160686;23;20238;-83
2023/09/30 01:25:12;;;;;;;5.13;2.70;;;;;;;16.61;76.72;96468.66;6134889;23;20251;-82
2023/09/30 01:27:38;;;;;;;4.43;2.60;;;;;;;16.65;76.66;96468.16;6134754;23;20213;-81
2023/09/30 01:30:03;;;;;;;5.05;2.95;;;;;;;16.69;76.40;96466.88;6161074;23;20152;-83
2023/09/30 01:32:29;;;;;;;5.30;2.97;;;;;;;16.74;76.80;96468.19;6136516;23;20179;-82
2023/09/30 01:34:54;;;;;;;3.42;2.60;;;;;;;16.72;77.05;96468.34;6137426;23;20184;-83
2023/09/30 01:37:19;;;;;;;5.93;2.80;;;;;;;16.70;77.26;96471.16;6162456;23;20246;-82
2023/09/30 01:39:45;;;;;;;6.40;2.83;;;;;;;16.68;77.20;96459.97;6135983;23;20171;-83
2023/09/30 01:42:11;;;;;;;8.30;3.17;;;;;;;16.67;77.78;96463.56;6134737;23;20238;-82
2023/09/30 01:44:36;;;;;;;6.90;3.13;;;;;;;16.67;77.59;96465.38;6133254;23;20183;-82
2023/09/30 01:47:01;;;;;;;4.82;3.10;;;;;;;16.66;77.58;96464.53;6158931;23;20592;-81
2023/09/30 01:49:26;;;;;;;4.18;2.67;;;;;;;16.67;77.48;96462.75;6161480;23;20159;-81
2023/09/30 01:51:52;;;;;;;5.43;3.03;;;;;;;16.57;78.01;96470.75;6134567;23;20175;-82
2023/09/30 01:54:18;;;;;;;5.68;3.28;;;;;;;16.54;78.49;96463.22;6157965;23;20170;-83
2023/09/30 01:56:43;;;;;;;5.25;3.40;;;;;;;16.47;78.82;96458.78;6134720;23;20611;-82
2023/09/30 01:59:08;;;;;;;5.70;3.45;;;;;;;16.53;78.60;96458.97;6135299;23;20246;-81
2023/09/30 02:01:34;;;;;;;6.43;3.30;;;;;;;16.53;79.01;96469.47;6135528;23;20160;-82
2023/09/30 02:03:59;;;;;;;3.70;2.88;;;;;;;16.53;78.95;96476.50;6134208;23;20167;-82
2023/09/30 02:06:24;;;;;;;4.25;2.88;;;;;;;16.55;79.12;96477.97;6158606;23;20179;-82
2023/09/30 02:08:50;;;;;;;5.00;3.47;;;;;;;16.54;79.06;96467.66;6134865;23;20193;-83
2023/09/30 02:11:16;;;;;;;4.25;3.00;;;;;;;16.52;79.49;96475.69;6160692;23;20186;-81
2023/09/30 02:13:42;;;;;;;4.90;3.20;;;;;;;16.44;79.49;96478.28;6134631;23;20163;-82
2023/09/30 02:16:12;;;;;;;3.70;2.65;;;;;;;16.41;79.95;96476.78;6160104;23;20179;-83
2023/09/30 02:18:37;;;;;;;4.72;2.92;;;;;;;16.45;79.79;96477.31;6135390;23;20626;-82
2023/09/30 02:21:04;;;;;;;4.60;2.92;;;;;;;16.39;80.06;96472.69;6159715;23;20159;-83
2023/09/30 02:23:29;;;;;;;5.20;3.40;;;;;;;16.42;80.28;96475.00;6159487;23;20210;-81
2023/09/30 02:25:54;;;;;;;5.95;3.22;;;;;;;16.36;80.38;96473.84;6160431;23;20219;-83
2023/09/30 02:28:20;;;;;;;4.93;3.13;;;;;;;16.32;81.09;96469.91;6135881;23;20170;-83
2023/09/30 02:30:45;;;;;;;5.38;3.80;;;;;;;16.27;81.51;96471.38;6135168;23;20694;-81
2023/09/30 02:33:10;;;;;;;7.38;3.80;;;;;;;16.09;82.32;96476.72;6134537;23;20167;-83
2023/09/30 02:35:38;;;;;;;5.78;3.83;;;;;;;16.17;82.02;96483.78;6160072;23;20230;-81
2023/09/30 02:38:04;;;;;;;7.60;4.05;;;;;;;16.23;82.46;96483.16;6160001;23;20498;-81
2023/09/30 02:40:29;;;;;;;6.38;3.53;;;;;;;16.26;82.17;96470.56;6133824;23;20161;-83
2023/09/30 02:42:54;;;;;;;7.38;3.90;;;;;;;16.17;81.91;96468.91;6133891;23;20174;-83
2023/09/30 02:45:20;;;;;;;7.70;3.80;;;;;;;16.17;82.30;96473.28;6157616;23;20213;-81
2023/09/30 02:47:46;;;;;;;5.35;3.40;;;;;;;16.05;82.50;96465.72;6134123;23;20255;-81
2023/09/30 02:50:12;;;;;;;5.85;3.67;;;;;;;16.05;82.20;96472.78;6133138;23;20623;-82
2023/09/30 02:52:40;;;;;;;6.72;3.95;;;;;;;16.03;81.55;96469.50;6132443;23;20167;-81
2023/09/30 02:55:09;;;;;;;7.03;4.20;;;;;;;15.81;81.65;96468.25;6158049;23;20171;-81
2023/09/30 02:57:35;;;;;;;6.82;3.53;;;;;;;15.96;81.13;96478.97;6158077;23;20484;-82
2023/09/30 03:00:11;;;;;;;6.80;3.92;;;;;;;16.02;80.92;96480.97;6158306;23;20211;-83
2023/09/30 03:02:37;;;;;;;7.28;3.92;;;;;;;16.05;80.56;96491.13;6134296;23;20158;-82
2023/09/30 03:05:03;;;;;;;5.88;3.47;;;;;;;16.00;79.87;96485.53;6158329;23;20519;-82
2023/09/30 03:07:29;;;;;;;5.80;3.75;;;;;;;16.02;79.64;96486.19;6157792;23;20486;-81
2023/09/30 03:09:55;;;;;;;8.80;3.50;;;;;;;16.02;79.19;96483.59;6158303;23;20198;-82
2023/09/30 03:12:20;;;;;;;8.77;3.55;;;;;;;16.08;78.88;96486.41;6157924;23;20179;-81
2023/09/30 03:14:46;;;;;;;10.55;3.92;;;;;;;16.11;78.63;96486.06;6160192;23;20175;-82
2023/09/30 03:17:11;;;;;;;8.70;3.70;;;;;;;16.00;78.58;96488.97;6160985;23;20162;-81
2023/09/30 03:19:37;;;;;;;7.30;3.85;;;;;;;16.00;78.68;96493.41;6159330;23;20159;-83
2023/09/30 03:22:05;;;;;;;7.90;3.97;;;;;;;16.01;78.38;96495.88;6159280;23;20208;-83
2023/09/30 03:24:31;;;;;;;7.13;3.17;;;;;;;15.98;78.01;96500.56;6133708;23;20242;-82
2023/09/30 03:26:57;;;;;;;7.65;4.10;;;;;;;16.01;77.73;96500.28;6157831;23;20163;-83
2023/09/30 03:29:23;;;;;;;10.15;3.83;;;;;;;16.01;77.74;96488.00;6133711;23;20218;-83
2023/09/30 03:31:48;;;;;;;5.25;3.50;;;;;;;16.00;77.79;96478.50;6133527;23;20266;-83
2023/09/30 03:34:16;;;;;;;4.95;3.67;;;;;;;15.97;77.89;96484.03;6133374;23;20729;-83
2023/09/30 03:36:41;;;;;;;6.93;3.40;;;;;;;15.98;77.60;96480.44;6135490;23;20195;-82
2023/09/30 03:39:08;;;;;;;7.05;3.53;;;;;;;15.97;77.53;96473.56;6158511;23;20222;-81
2023/09/30 03:41:36;;;;;;;6.72;3.72;;;;;;;15.94;77.67;96473.88;6152622;23;20178;-80
2023/09/30 03:44:02;;;;;;;12.48;3.95;;;;;;;15.95;78.06;96472.91;6156854;23;20199;-79
2023/09/30 03:46:27;;;;;;;7.75;3.92;;;;;;;15.94;77.71;96468.66;6181950;23;20177;-79
2023/09/30 03:48:53;;;;;;;7.20;3.65;;;;;;;15.92;77.39;96465.38;6181308;23;20195;-79
2023/09/30 03:51:18;;;;;;;11.43;3.85;;;;;;;15.90;77.79;96471.72;6151657;23;20198;-80
2023/09/30 03:53:46;;;;;;;6.57;3.80;;;;;;;15.84;78.36;96475.81;6153212;23;20152;-81
2023/09/30 03:56:12;;;;;;;7.78;4.78;;;;;;;15.86;78.48;96492.19;6158463;23;20566;-82
2023/09/30 03:58:41;;;;;;;8.93;4.30;;;;;;;15.85;77.88;96482.69;6159640;23;20197;-82
2023/09/30 04:01:07;;;;;;;7.18;4.13;;;;;;;15.92;77.93;96486.34;6184513;23;20226;-81
2023/09/30 04:03:33;;;;;;;7.50;3.80;;;;;;;15.89;77.96;96499.72;6184317;23;20159;-81
2023/09/30 04:05:59;;;;;;;8.95;4.00;;;;;;;15.92;78.01;96502.03;6132559;23;20215;-82
2023/09/30 04:08:24;;;;;;;8.77;3.90;;;;;;;15.91;77.99;96500.41;6158126;23;20162;-82
2023/09/30 04:10:49;;;;;;;6.07;3.92;;;;;;;15.88;77.86;96495.47;6131900;23;20268;-80
2023/09/30 04:13:15;;;;;;;5.75;3.80;;;;;;;15.91;77.94;96489.94;6131134;23;20194;-82
2023/09/30 04:15:40;;;;;;;9.75;5.13;;;;;;;15.88;77.65;96477.13;6155055;23;20171;-81
2023/09/30 04:18:05;;;;;;;6.38;4.43;;;;;;;15.85;77.93;96480.91;6130967;23;20621;-80
2023/09/30 04:20:31;;;;;;;5.90;3.65;;;;;;;15.83;78.45;96488.09;6158213;23;20170;-82
2023/09/30 04:22:57;;;;;;;6.63;4.53;;;;;;;15.83;78.12;96488.09;6132039;23;20167;-83
2023/09/30 04:25:24;;;;;;;7.03;4.15;;;;;;;15.82;77.85;96490.88;6159214;23;20181;-81
2023/09/30 04:27:49;;;;;;;8.25;4.05;;;;;;;15.86;77.68;96497.44;6160472;23;20166;-80
2023/09/30 04:30:15;;;;;;;8.70;4.25;;;;;;;15.85;77.74;96493.16;6135512;23;20163;-81
2023/09/30 04:32:40;;;;;;;9.93;4.75;;;;;;;15.85;77.67;96498.41;6133672;23;20226;-83
2023/09/30 04:35:08;;;;;;;7.75;4.40;;;;;;;15.77;77.66;96499.19;6134113;23;20183;-82
2023/09/30 04:37:34;;;;;;;10.13;4.20;;;;;;;15.80;77.79;96508.53;6160644;23;20622;-83
2023/09/30 04:39:59;;;;;;;8.40;4.03;;;;;;;15.80;77.76;96503.28;6161134;23;20151;-83
2023/09/30 04:42:25;;;;;;;8.65;4.35;;;;;;;15.77;77.62;96499.19;6135477;23;20163;-82
2023/09/30 04:44:51;;;;;;;6.65;4.25;;;;;;;15.76;78.11;96501.97;6159956;23;20496;-82
2023/09/30 04:47:18;;;;;;;8.50;4.20;;;;;;;15.74;78.05;96517.03;6185072;23;20604;-84
2023/09/30 04:49:44;;;;;;;10.88;4.20;;;;;;;15.80;78.15;96525.06;6160484;23;20167;-81
2023/09/30 04:52:09;;;;;;;8.77;4.57;;;;;;;15.77;78.32;96514.91;6135237;23;20183;-82
2023/09/30 04:54:35;;;;;;;6.57;4.25;;;;;;;15.75;78.12;96524.72;6134897;23;20690;-82
2023/09/30 04:57:01;;;;;;;6.43;4.15;;;;;;;15.76;78.09;96530.78;6136033;23;20254;-81
2023/09/30 04:59:26;;;;;;;10.80;3.95;;;;;;;15.80;77.88;96529.47;6160435;23;20155;-82
2023/09/30 05:01:51;;;;;;;10.13;4.32;;;;;;;15.76;78.25;96528.16;6135698;23;20494;-83
2023/09/30 05:04:17;;;;;;;7.57;4.38;;;;;;;15.76;77.99;96534.22;6134580;23;20163;-82
2023/09/30 05:06:42;;;;;;;6.72;4.25;;;;;;;15.70;78.20;96534.00;6136144;23;20159;-82
2023/09/30 05:09:07;;;;;;;7.47;4.40;;;;;;;15.73;77.85;96531.09;6135771;23;20174;-82
2023/09/30 05:11:33;;;;;;;6.70;4.13;;;;;;;15.73;78.08;96533.72;6135823;23;20630;-81
2023/09/30 05:13:59;;;;;;;8.75;5.18;;;;;;;15.61;77.84;96524.47;6134600;23;20160;-82
2023/09/30 05:16:27;;;;;;;7.78;5.13;;;;;;;15.69;77.39;96521.91;6158478;23;20178;-82
2023/09/30 05:18:52;;;;;;;8.45;4.75;;;;;;;15.54;78.70;96519.81;6158175;23;20155;-81
2023/09/30 05:21:17;;;;;;;10.88;4.97;;;;;;;15.50;78.93;96515.88;6133520;23;20174;-83
2023/09/30 05:23:43;;;;;;;7.28;4.53;;;;;;;15.50;78.94;96523.72;6157952;23;20178;-83
2023/09/30 05:26:08;;;;;;;7.97;4.47;;;;;;;15.49;78.54;96516.84;6135775;23;20581;-81
2023/09/30 05:28:34;;;;;;;10.73;4.30;;;;;;;15.37;78.97;96522.47;6158762;23;20821;-80
2023/09/30 05:31:00;;;;;;;6.72;3.90;;;;;;;15.31;78.93;96518.69;6135057;23;20179;-82
2023/09/30 05:33:27;;;;;;;8.43;4.50;;;;;;;15.26;78.82;96521.75;6133721;23;20241;-82
2023/09/30 05:35:53;;;;;;;8.15;4.30;;;;;;;15.27;78.90;96514.72;6136430;23;20179;-81
2023/09/30 05:38:20;;;;;;;6.03;4.40;;;;;;;15.23;78.87;96532.53;6133723;23;20163;-82
2023/09/30 05:40:45;;;;;;;12.13;4.38;;;;;;;15.20;79.02;96525.00;6132525;23;20179;-82
2023/09/30 05:43:13;;;;;;;5.15;3.85;;;;;;;15.27;79.24;96517.34;6134855;23;20630;-80
2023/09/30 05:45:44;;;;;;;11.65;4.45;;;;;;;15.25;79.21;96532.38;6160078;23;20175;-81
2023/09/30 05:48:10;;;;;;;7.05;3.78;;;;;;;15.31;78.67;96539.63;6136698;23;20147;-82
2023/09/30 05:50:36;;;;;;;9.25;4.00;;;;;;;15.35;78.56;96542.75;6134206;23;20191;-82
2023/09/30 05:53:02;;;;;;;9.60;4.32;;;;;;;15.42;78.62;96541.16;6160433;23;20527;-81
2023/09/30 05:55:27;;;;;;;9.68;4.53;;;;;;;15.40;78.33;96533.47;6161783;23;20185;-81
2023/09/30 05:57:53;;;;;;;8.48;4.50;;;;;;;15.45;78.20;96539.06;6160855;23;20155;-81
2023/09/30 06:00:30;;;;;;;6.05;4.82;;;;;;;15.47;78.46;96534.50;6135013;23;20472;-81
2023/09/30 06:02:55;;;;;;;7.15;3.85;;;;;;;15.53;78.27;96533.88;6137052;23;20238;-82
2023/09/30 06:05:22;;;;;;;7.10;4.00;;;;;;;15.55;77.70;96546.84;6137294;23;20182;-82
2023/09/30 06:07:48;;;;;;;6.85;4.03;;;;;;;15.59;77.41;96556.00;6164616;23;20160;-82
2023/09/30 06:10:18;;;;;;;9.13;4.68;;;;;;;15.58;77.56;96563.03;6162856;23;20182;-80
2023/09/30 06:12:44;;;;;;;8.50;4.40;;;;;;;15.55;77.84;96563.34;6162744;23;20190;-81
2023/09/30 06:15:10;;;;;;;7.80;4.35;;;;;;;15.68;77.08;96567.38;6138195;23;20179;-81
2023/09/30 06:17:35;;;;;;;7.25;4.60;;;;;;;15.74;76.73;96564.97;6163721;23;20151;-82
2023/09/30 06:20:08;;;;;;;8.02;4.25;;;;;;;15.82;76.69;96566.81;6137957;23;20177;-80
2023/09/30 06:22:33;;;;;;;8.02;4.47;;;;;;;15.82;77.32;96569.44;6160484;23;20207;-81
2023/09/30 06:24:58;;;;;;;9.77;4.60;;;;;;;15.92;76.95;96571.94;6138990;23;20230;-83
2023/09/30 06:27:24;;;;;;;7.85;5.13;;;;;;;15.96;76.58;96562.78;6138765;23;20159;-81
2023/09/30 06:29:49;;;;;;;8.70;5.28;;;;;;;15.93;76.86;96568.34;6163533;23;20543;-83
2023/09/30 06:32:15;;;;;;;9.25;4.88;;;;;;;15.95;77.50;96577.69;6139195;23;20190;-82
2023/09/30 06:34:40;;;;;;;8.80;5.28;;;;;;;16.10;76.35;96576.13;6160967;23;20175;-80
2023/09/30 06:37:06;;;;;;;9.38;5.28;;;;;;;16.21;76.15;96569.78;6155926;23;20658;-81
2023/09/30 06:39:31;;;;;;;7.57;4.85;;;;;;;16.39;75.81;96578.38;6126405;23;20258;-81
2023/09/30 06:41:56;;;;;;;11.43;4.57;;;;;;;16.58;74.80;96576.47;6123836;23;20250;-81
2023/09/30 06:44:24;;;;;;;7.40;4.85;;;;;;;16.62;74.37;96578.63;6125085;23;20656;-81
2023/09/30 06:46:50;;;;;;;8.57;5.40;;;;;;;16.62;74.06;96583.88;6128186;23;20162;-82
2023/09/30 06:49:15;;;;;;;11.02;4.53;;;;;;;16.70;73.45;96586.56;6154767;23;20151;-82
2023/09/30 06:51:41;;;;;;;8.90;5.70;;;;;;;16.60;73.83;96572.69;6128730;23;20198;-80
2023/09/30 06:54:06;;;;;;;8.77;5.70;;;;;;;16.63;73.80;96574.19;6127196;23;20167;-82
2023/09/30 06:56:31;;;;;;;9.52;5.25;;;;;;;16.43;74.90;96564.00;6127441;23;20166;-82
2023/09/30 06:58:57;;;;;;;7.65;5.00;;;;;;;16.81;73.25;96559.19;6153001;23;20506;-82
2023/09/30 07:01:23;;;;;;;9.27;4.85;;;;;;;16.98;72.96;96565.28;6152791;23;20147;-81
2023/09/30 07:03:48;;;;;;;11.13;5.35;;;;;;;16.90;72.88;96565.25;6153093;23;20155;-81
2023/09/30 07:06:22;;;;;;;6.90;5.50;;;;;;;17.06;71.53;96573.16;6153080;23;20187;-80
2023/09/30 07:08:47;;;;;;;9.75;5.68;;;;;;;16.87;72.61;96560.31;6127548;23;20173;-82
2023/09/30 07:11:12;;;;;;;8.45;5.15;;;;;;;17.01;72.39;96567.56;6153269;23;20179;-81
2023/09/30 07:13:38;;;;;;;8.98;5.28;;;;;;;16.88;72.47;96591.66;6127560;23;20222;-81
2023/09/30 07:16:03;;;;;;;9.93;5.70;;;;;;;17.04;71.88;96587.41;6128475;23;20183;-81
2023/09/30 07:18:29;;;;;;;9.93;5.75;;;;;;;17.04;71.50;96595.28;6127747;23;20163;-81
2023/09/30 07:20:54;;;;;;;7.22;5.13;;;;;;;17.09;71.40;96612.19;6127999;23;20217;-82
2023/09/30 07:23:19;;;;;;;7.88;5.63;;;;;;;17.00;71.38;96618.41;6151627;23;20620;-81
2023/09/30 07:25:45;;;;;;;11.38;5.25;;;;;;;16.86;72.53;96609.34;6126930;23;20182;-80
2023/09/30 07:28:11;;;;;;;7.15;5.00;;;;;;;16.77;73.94;96604.25;6127614;23;20169;-79
2023/09/30 07:30:37;;;;;;;10.02;5.60;;;;;;;16.55;75.02;96611.69;6127707;23;20187;-80
2023/09/30 07:33:03;;;;;;;6.53;4.80;;;;;;;16.98;73.46;96613.31;6126437;23;20170;-79
2023/09/30 07:37:56;;;;;;;7.93;6.60;;;;;;;17.22;71.73;96620.38;6156799;23;20179;-81
2023/09/30 07:40:21;;;;;;;10.30;6.63;;;;;;;17.24;71.51;96620.25;6107029;23;20173;-80
2023/09/30 07:42:47;;;;;;;11.23;6.72;;;;;;;17.16;71.01;96634.19;6106986;23;20167;-81
2023/09/30 07:45:16;;;;;;;9.98;6.53;;;;;;;16.97;72.76;96630.06;6131959;23;20171;-80
2023/09/30 07:47:43;;;;;;;11.45;6.47;;;;;;;17.06;71.88;96638.78;6108419;23;20163;-81
2023/09/30 07:50:09;;;;;;;10.93;6.72;;;;;;;16.99;73.03;96635.13;6134104;23;20506;-79
2023/09/30 07:52:35;;;;;;;12.45;7.03;;;;;;;16.82;73.24;96626.41;6134785;23;20183;-81
2023/09/30 07:55:01;;;;;;;12.98;6.97;;;;;;;16.96;73.90;96627.56;6136984;23;20286;-80
2023/09/30 07:57:26;;;;;;;11.45;6.53;;;;;;;17.05;73.02;96625.78;6136696;23;20166;-81
2023/09/30 07:59:51;;;;;;;9.50;6.60;;;;;;;17.27;71.47;96625.16;6114005;23;20163;-81
2023/09/30 08:02:17;;;;;;;10.50;5.63;;;;;;;17.43;71.60;96612.06;6112086;23;20163;-80
2023/09/30 08:04:43;;;;;;;12.32;6.50;;;;;;;17.59;71.06;96598.09;6113209;23;20233;-80
2023/09/30 08:07:09;;;;;;;8.38;6.10;;;;;;;17.92;69.20;96608.56;6139733;23;20577;-80
2023/09/30 08:09:34;;;;;;;12.98;6.82;;;;;;;17.66;67.96;96608.75;6114879;23;20245;-81
2023/09/30 08:12:00;;;;;;;10.60;6.97;;;;;;;17.67;69.27;96611.22;6114586;23;20185;-80
2023/09/30 08:14:25;;;;;;;8.75;5.82;;;;;;;17.87;68.97;96616.16;6136609;23;20203;-78
2023/09/30 08:16:51;;;;;;;8.93;5.93;;;;;;;18.00;67.99;96625.16;6111770;23;20567;-80
2023/09/30 08:19:16;;;;;;;11.98;6.82;;;;;;;17.76;67.98;96625.22;6136142;23;20175;-81
2023/09/30 08:21:41;;;;;;;14.07;6.57;;;;;;;17.85;67.56;96626.03;6135136;23;20177;-79
2023/09/30 08:24:08;;;;;;;9.80;5.82;;;;;;;17.82;67.76;96620.09;6112283;23;20165;-79
2023/09/30 08:26:35;;;;;;;11.98;6.47;;;;;;;17.77;67.45;96619.78;6161724;23;20563;-81
2023/09/30 08:29:00;;;;;;;9.23;5.93;;;;;;;17.62;67.50;96624.03;6111593;23;20159;-79
2023/09/30 08:31:26;;;;;;;10.00;6.28;;;;;;;17.72;68.20;96627.34;6138436;23;20179;-80
2023/09/30 08:33:51;;;;;;;10.85;6.03;;;;;;;17.89;66.41;96620.25;6114572;23;20484;-79
2023/09/30 08:36:16;;;;;;;9.70;5.75;;;;;;;17.82;67.10;96609.59;6152125;23;20626;-81
2023/09/30 08:38:42;;;;;;;9.68;5.20;;;;;;;17.99;66.69;96606.94;6193963;23;20154;-79
2023/09/30 08:41:07;;;;;;;8.85;4.78;;;;;;;18.26;65.37;96611.78;6168394;23;20159;-80
2023/09/30 08:43:38;;;;;;;10.88;5.13;;;;;;;18.47;65.42;96615.66;6167262;23;20471;-81
2023/09/30 08:46:04;;;;;;;7.53;4.07;;;;;;;18.58;65.68;96613.47;6168287;23;20201;-80
2023/09/30 08:48:32;;;;;;;5.75;4.68;;;;;;;18.67;63.06;96603.75;6192853;23;20150;-81
2023/09/30 08:50:58;;;;;;;8.45;4.90;;;;;;;18.47;64.02;96599.88;6219418;23;20167;-80
2023/09/30 08:53:24;;;;;;;7.53;4.25;;;;;;;18.31;63.77;96606.03;6217312;23;20194;-81
2023/09/30 08:55:58;;;;;;;12.48;4.43;;;;;;;18.57;63.28;96603.13;6218053;23;20230;-81
2023/09/30 08:58:28;;;;;;;5.40;4.00;;;;;;;18.40;62.50;96605.81;6170165;23;20278;-81
2023/09/30 09:00:56;;;;;;;9.52;4.32;;;;;;;18.81;61.54;96605.66;6194328;23;20159;-80
2023/09/30 09:03:21;;;;;;;7.25;4.22;;;;;;;19.13;60.83;96615.16;6169727;23;20209;-81
2023/09/30 09:05:54;;;;;;;7.30;3.72;;;;;;;18.88;62.65;96621.56;6170770;23;20182;-80
2023/09/30 09:08:23;;;;;;;8.15;4.32;;;;;;;19.14;60.82;96622.06;6172190;23;20154;-81
2023/09/30 09:11:00;;;;;;;7.70;4.25;;;;;;;19.38;59.54;96626.34;6177237;23;20167;-81
2023/09/30 09:13:26;;;;;;;8.95;4.38;;;;;;;19.44;60.48;96632.75;6177263;23;20155;-80
2023/09/30 09:16:08;;;;;;;7.85;4.47;;;;;;;19.58;60.65;96634.63;6203105;23;20186;-82
2023/09/30 09:18:35;;;;;;;6.90;3.75;;;;;;;19.96;58.91;96622.25;6192364;23;20158;-81
2023/09/30 09:21:11;;;;;;;9.13;4.00;;;;;;;19.98;57.90;96625.53;6194851;23;20311;-80
2023/09/30 09:23:42;;;;;;;8.88;4.30;;;;;;;20.15;57.31;96623.56;6165265;23;20709;-80
2023/09/30 09:26:07;;;;;;;8.18;4.20;;;;;;;20.13;57.51;96622.91;6164587;23;20241;-79
2023/09/30 09:28:38;;;;;;;7.10;4.22;;;;;;;20.14;57.49;96626.34;6159816;23;20167;-81
2023/09/30 09:31:19;;;;;;;10.40;3.80;;;;;;;20.39;55.76;96619.81;6188339;23;20185;-79
2023/09/30 09:33:44;;;;;;;12.77;4.15;;;;;;;20.26;55.93;96606.47;6193560;23;20646;-79
2023/09/30 09:36:10;;;;;;;7.57;3.83;;;;;;;19.70;57.74;96612.13;6171552;23;20194;-81
2023/09/30 09:38:47;;;;;;;9.27;4.45;;;;;;;19.39;59.20;96608.72;6171984;23;20190;-80
2023/09/30 09:41:13;;;;;;;7.38;4.65;;;;;;;19.43;58.24;96602.09;6193999;23;20162;-79
2023/09/30 09:43:43;;;;;;;6.72;4.47;;;;;;;19.37;58.48;96600.19;6170640;23;20237;-80
2023/09/30 09:46:09;;;;;;;7.45;4.13;;;;;;;19.25;58.88;96597.94;6220991;23;20174;-81
2023/09/30 09:48:38;;;;;;;7.63;3.95;;;;;;;19.46;57.76;96610.47;6172410;23;20233;-81
2023/09/30 09:51:05;;;;;;;6.43;3.78;;;;;;;19.14;58.62;96610.72;6197486;23;20513;-80
2023/09/30 09:53:33;;;;;;;6.70;4.18;;;;;;;19.14;57.93;96610.72;6220551;23;20206;-81
2023/09/30 09:55:59;;;;;;;5.88;3.85;;;;;;;19.31;57.03;96611.44;6193825;23;20185;-79
2023/09/30 09:58:25;;;;;;;6.47;3.85;;;;;;;19.34;56.73;96611.06;6195867;23;20150;-81
2023/09/30 10:00:51;;;;;;;5.93;3.80;;;;;;;19.05;57.97;96604.69;6194977;23;20236;-80
2023/09/30 10:03:17;;;;;;;7.97;4.07;;;;;;;18.99;58.31;96601.91;6169286;23;20173;-84
2023/09/30 10:05:43;;;;;;;9.95;4.25;;;;;;;18.89;57.76;96610.03;6191620;23;20242;-80
2023/09/30 10:08:13;;;;;;;7.85;3.80;;;;;;;18.74;58.08;96611.78;6169879;23;20154;-81
2023/09/30 10:10:38;;;;;;;9.25;4.47;;;;;;;19.11;56.00;96605.81;6193856;23;20201;-81
2023/09/30 10:13:05;;;;;;;8.32;4.13;;;;;;;19.51;55.77;96600.22;6161463;23;20260;-81
2023/09/30 10:15:35;;;;;;;7.07;4.00;;;;;;;19.38;55.95;96594.75;6158076;23;20171;-81
2023/09/30 10:18:11;;;;;;;7.90;4.03;;;;;;;19.53;55.53;96595.63;6183821;23;20157;-81
2023/09/30 10:20:41;;;;;;;9.70;4.10;;;;;;;19.63;56.07;96599.84;6158607;23;20165;-81
2023/09/30 10:23:26;;;;;;;8.50;4.20;;;;;;;19.40;56.83;96595.38;6182416;23;20170;-81
2023/09/30 10:25:57;;;;;;;6.80;4.03;;;;;;;19.70;55.30;96598.09;6158715;23;20281;-82
2023/09/30 10:28:32;;;;;;;9.65;5.13;;;;;;;19.57;54.37;96590.81;6183921;23;20160;-81
2023/09/30 10:31:12;;;;;;;7.95;4.15;;;;;;;19.73;55.13;96593.31;6183708;23;20582;-81
2023/09/30 10:34:02;;;;;;;6.85;3.50;;;;;;;20.15;53.24;96596.38;6208111;23;20165;-82
2023/09/30 10:36:29;;;;;;;5.70;4.20;;;;;;;20.29;53.11;96587.63;6184764;23;20250;-82
2023/09/30 10:38:54;;;;;;;7.18;3.83;;;;;;;20.52;52.22;96584.91;6183554;23;20583;-81
2023/09/30 10:41:39;;;;;;;6.68;4.35;;;;;;;20.69;50.38;96590.81;6183214;23;20237;-81
2023/09/30 10:44:22;;;;;;;8.40;4.55;;;;;;;20.50;51.35;96595.66;6184757;23;20274;-81
2023/09/30 10:46:51;;;;;;;8.23;4.25;;;;;;;20.77;50.27;96582.78;6187247;23;20566;-83
2023/09/30 10:49:22;;;;;;;7.85;4.10;;;;;;;20.72;50.97;96579.88;6189669;23;20506;-81
2023/09/30 10:51:54;;;;;;;7.82;4.50;;;;;;;21.29;48.73;96579.03;6187526;23;20519;-83
2023/09/30 10:54:24;;;;;;;6.72;4.57;;;;;;;21.42;48.36;96573.91;6187590;23;20147;-83
2023/09/30 10:56:49;;;;;;;8.77;4.25;;;;;;;21.38;47.76;96569.97;6216682;23;20154;-82
2023/09/30 10:59:25;;;;;;;9.35;4.75;;;;;;;21.48;48.78;96566.03;6166752;23;20158;-81
2023/09/30 11:01:51;;;;;;;8.38;4.05;;;;;;;20.89;50.51;96563.59;6190307;23;20606;-79
2023/09/30 11:04:17;;;;;;;9.25;4.22;;;;;;;21.37;50.73;96565.72;6215860;23;20157;-82
2023/09/30 11:06:42;;;;;;;7.70;4.50;;;;;;;20.74;50.03;96569.94;6190153;23;20194;-80
2023/09/30 11:09:13;;;;;;;9.27;5.15;;;;;;;21.41;49.76;96569.63;6191361;23;20154;-83
2023/09/30 11:11:43;;;;;;;10.48;5.15;;;;;;;21.26;47.71;96566.19;6167375;23;20182;-81
2023/09/30 11:14:29;;;;;;;9.32;4.72;;;;;;;20.88;47.82;96564.63;6190379;23;20143;-81
2023/09/30 11:16:59;;;;;;;10.18;5.25;;;;;;;21.00;47.74;96567.56;6167665;23;20162;-82
2023/09/30 11:19:25;;;;;;;9.02;4.78;;;;;;;21.06;47.67;96558.09;6217872;23;20155;-82
2023/09/30 11:21:52;;;;;;;7.47;4.50;;;;;;;20.92;47.92;96568.50;6167706;23;20163;-82
2023/09/30 11:24:18;;;;;;;8.85;4.80;;;;;;;20.94;47.37;96570.97;6190888;23;20197;-80
2023/09/30 11:26:44;;;;;;;9.10;4.68;;;;;;;21.02;47.28;96554.19;6216862;23;20161;-82
2023/09/30 11:29:11;;;;;;;10.25;4.97;;;;;;;20.82;47.54;96560.06;6193038;23;20158;-82
2023/09/30 11:31:44;;;;;;;8.38;4.43;;;;;;;20.42;48.79;96568.53;6191835;23;20174;-82
2023/09/30 11:34:11;;;;;;;8.13;4.22;;;;;;;20.23;49.14;96572.50;6166926;23;20245;-82